Time;durP1;ratioP1;P1;durP2;ratioP2;P2;SDS_P1;SDS_P2;PMS_P1;PMS_P2;Temp;Humidity;BMP_temperature;BMP_pressure;BME280_temperature;BME280_humidity;BME280_pressure;Samples;Min_cycle;Max_cycle;Signal;HPM_P1;HPM_P2
2022/03/08 00:00:23;;;;;;;;;;;;;;;-2.25;61.74;101855.47;1737063;81;20450;-71
2022/03/08 00:02:50;;;;;;;;;;;;;;;-2.24;61.75;101851.28;1730375;82;20461;-70
2022/03/08 00:05:16;;;;;;;;;;;;;;;-2.23;61.95;101853.90;1729803;82;20355;-71
2022/03/08 00:07:45;;;;;;;;;;;;;;;-2.23;61.90;101848.83;1717286;82;20471;-71
2022/03/08 00:10:11;;;;;;;;;;;;;;;-2.23;61.90;101854.29;1730725;82;20159;-71
2022/03/08 00:12:37;;;;;;;;;;;;;;;-2.23;61.88;101856.43;1730295;82;20185;-71
2022/03/08 00:15:11;;;;;;;;;;;;;;;-2.23;61.85;101858.97;1723387;82;20179;-71
2022/03/08 00:17:38;;;;;;;;;;;;;;;-2.24;61.93;101854.69;1711196;82;20241;-71
2022/03/08 00:20:08;;;;;;;;;;;;;;;-2.24;61.97;101855.95;1730114;82;20095;-71
2022/03/08 00:22:36;;;;;;;;;;;;;;;-2.26;61.92;101855.39;1713923;82;20126;-71
2022/03/08 00:25:03;;;;;;;;;;;;;;;-2.26;62.00;101858.80;1723390;82;20111;-71
2022/03/08 00:27:31;;;;;;;;;;;;;;;-2.26;62.02;101853.73;1711430;82;20122;-71
2022/03/08 00:29:57;;;;;;;;;;;;;;;-2.26;62.05;101847.39;1732201;82;20162;-71
2022/03/08 00:32:24;;;;;;;;;;;;;;;-2.27;62.05;101846.05;1731788;82;20249;-72
2022/03/08 00:34:51;;;;;;;;;;;;;;;-2.27;62.07;101846.05;1712278;82;20489;-72
2022/03/08 00:37:17;;;;;;;;;;;;;;;-2.29;62.24;101847.22;1711733;82;20529;-71
2022/03/08 00:39:45;;;;;;;;;;;;;;;-2.26;62.27;101853.73;1730149;82;20482;-71
2022/03/08 00:42:12;;;;;;;;;;;;;;;-2.25;62.37;101844.47;1724589;82;20206;-71
2022/03/08 00:44:39;;;;;;;;;;;;;;;-2.26;62.27;101843.59;1732475;82;20083;-71
2022/03/08 00:47:07;;;;;;;;;;;;;;;-2.27;62.32;101845.65;1731826;82;20450;-71
2022/03/08 00:49:32;;;;;;;;;;;;;;;-2.27;62.19;101841.84;1705617;82;20097;-71
2022/03/08 00:51:58;;;;;;;;;;;;;;;-2.27;62.24;101846.05;1716886;82;20306;-71
2022/03/08 00:54:24;;;;;;;;;;;;;;;-2.30;62.19;101846.75;1730233;82;20464;-71
2022/03/08 00:56:50;;;;;;;;;;;;;;;-2.31;62.29;101850.06;1728570;82;20256;-71
2022/03/08 00:59:17;;;;;;;;;;;;;;;-2.34;62.24;101851.16;1719317;82;20197;-71
2022/03/08 01:01:43;;;;;;;;;;;;;;;-2.36;62.21;101846.01;1704409;82;20188;-71
2022/03/08 01:04:09;;;;;;;;;;;;;;;-2.39;62.41;101848.38;1711182;82;20231;-71
2022/03/08 01:06:40;;;;;;;;;;;;;;;-2.40;62.36;101855.48;1723664;82;20182;-71
2022/03/08 01:09:06;;;;;;;;;;;;;;;-2.45;62.31;101858.55;1730683;82;20151;-71
2022/03/08 01:11:32;;;;;;;;;;;;;;;-2.50;62.24;101863.35;1719104;82;20298;-71
2022/03/08 01:13:59;;;;;;;;;;;;;;;-2.54;62.30;101864.36;1730315;82;20142;-71
2022/03/08 01:16:24;;;;;;;;;;;;;;;-2.56;62.47;101869.73;1727525;81;20146;-71
2022/03/08 01:18:51;;;;;;;;;;;;;;;-2.58;62.40;101865.84;1730884;82;20189;-71
2022/03/08 01:21:17;;;;;;;;;;;;;;;-2.61;62.43;101863.56;1724988;82;20179;-71
2022/03/08 01:23:43;;;;;;;;;;;;;;;-2.67;62.37;101866.22;1707367;82;20175;-71
2022/03/08 01:26:09;;;;;;;;;;;;;;;-2.70;62.39;101871.50;1731005;82;20225;-71
2022/03/08 01:28:35;;;;;;;;;;;;;;;-2.71;62.60;101878.62;1728771;82;20139;-71
2022/03/08 01:31:07;;;;;;;;;;;;;;;-2.72;62.67;101872.68;1708895;83;20460;-71
2022/03/08 01:33:33;;;;;;;;;;;;;;;-2.69;62.77;101865.66;1730612;82;20122;-71
2022/03/08 01:35:59;;;;;;;;;;;;;;;-2.72;62.60;101860.02;1717043;82;20171;-71
2022/03/08 01:38:25;;;;;;;;;;;;;;;-2.74;62.55;101854.39;1720088;82;20285;-71
2022/03/08 01:40:51;;;;;;;;;;;;;;;-2.77;62.52;101852.56;1730164;82;20736;-71
2022/03/08 01:43:18;;;;;;;;;;;;;;;-2.81;62.47;101856.97;1730499;82;20123;-71
2022/03/08 01:45:44;;;;;;;;;;;;;;;-2.85;62.66;101849.10;1730405;82;20175;-71
2022/03/08 01:48:10;;;;;;;;;;;;;;;-2.88;62.63;101848.53;1726870;82;20202;-71
2022/03/08 01:50:36;;;;;;;;;;;;;;;-2.88;62.71;101851.45;1726680;82;20354;-71
2022/03/08 01:53:02;;;;;;;;;;;;;;;-2.91;62.62;101838.62;1727139;82;20335;-71
2022/03/08 01:55:29;;;;;;;;;;;;;;;-2.93;62.77;101837.66;1727798;82;20190;-71
2022/03/08 01:57:54;;;;;;;;;;;;;;;-2.97;62.67;101837.88;1713671;82;20458;-71
2022/03/08 02:00:26;;;;;;;;;;;;;;;-3.01;62.68;101835.56;1727393;82;20793;-71
2022/03/08 02:02:52;;;;;;;;;;;;;;;-3.04;62.82;101839.17;1713322;82;20468;-71
2022/03/08 02:05:18;;;;;;;;;;;;;;;-3.06;62.84;101843.28;1727508;82;20203;-71
2022/03/08 02:07:44;;;;;;;;;;;;;;;-3.08;62.86;101843.97;1730368;82;20253;-71
2022/03/08 02:10:10;;;;;;;;;;;;;;;-3.10;62.81;101843.01;1712716;82;20814;-71
2022/03/08 02:12:37;;;;;;;;;;;;;;;-3.11;62.88;101841.26;1719616;82;20186;-71
2022/03/08 02:15:14;;;;;;;;;;;;;;;-3.12;62.92;101842.91;1713787;82;20219;-71
2022/03/08 02:17:40;;;;;;;;;;;;;;;-3.13;63.11;101842.86;1717578;82;20175;-71
2022/03/08 02:20:09;;;;;;;;;;;;;;;-3.12;63.14;101845.87;1698324;83;20180;-71
2022/03/08 02:22:35;;;;;;;;;;;;;;;-3.13;62.97;101850.45;1730746;82;20761;-71
2022/03/08 02:25:02;;;;;;;;;;;;;;;-3.16;62.94;101854.06;1727089;82;20103;-71
2022/03/08 02:27:46;;;;;;;;;;;;;;;-3.18;62.99;101848.91;1713571;82;20106;-71
2022/03/08 02:30:13;;;;;;;;;;;;;;;-3.19;62.98;101846.30;1702979;84;20105;-71
2022/03/08 02:32:44;;;;;;;;;;;;;;;-3.24;62.87;101846.41;1709807;82;20143;-71
2022/03/08 02:35:17;;;;;;;;;;;;;;;-3.28;62.89;101849.54;1730864;82;20173;-71
2022/03/08 02:37:45;;;;;;;;;;;;;;;-3.30;63.06;101851.10;1731427;82;20131;-71
2022/03/08 02:40:13;;;;;;;;;;;;;;;-3.31;63.06;101850.63;1728450;82;20147;-70
2022/03/08 02:42:40;;;;;;;;;;;;;;;-3.34;63.04;101852.19;1704071;82;20173;-71
2022/03/08 02:45:13;;;;;;;;;;;;;;;-3.37;63.04;101854.92;1730375;82;20158;-71
2022/03/08 02:47:39;;;;;;;;;;;;;;;-3.37;63.13;101855.80;1730374;81;20202;-72
2022/03/08 02:50:07;;;;;;;;;;;;;;;-3.40;63.14;101847.16;1717086;82;20149;-71
2022/03/08 02:52:34;;;;;;;;;;;;;;;-3.41;63.10;101846.28;1701425;83;20528;-71
2022/03/08 02:54:59;;;;;;;;;;;;;;;-3.44;63.14;101853.67;1701181;83;20188;-72
2022/03/08 02:57:25;;;;;;;;;;;;;;;-3.45;63.32;101851.94;1702192;82;20204;-72
2022/03/08 02:59:52;;;;;;;;;;;;;;;-3.42;63.46;101852.50;1701529;82;20574;-71
2022/03/08 03:02:18;;;;;;;;;;;;;;;-3.39;63.52;101851.03;1701405;83;20133;-72
2022/03/08 03:04:46;;;;;;;;;;;;;;;-3.36;63.47;101849.08;1707839;82;20443;-71
2022/03/08 03:07:12;;;;;;;;;;;;;;;-3.37;63.52;101846.95;1730847;82;20199;-71
2022/03/08 03:09:38;;;;;;;;;;;;;;;-3.36;63.38;101851.61;1731614;82;20130;-71
2022/03/08 03:12:05;;;;;;;;;;;;;;;-3.39;63.45;101840.92;1715217;82;20192;-71
2022/03/08 03:14:31;;;;;;;;;;;;;;;-3.42;63.37;101847.06;1701690;82;20165;-72
2022/03/08 03:16:59;;;;;;;;;;;;;;;-3.43;63.46;101854.55;1712408;82;20456;-72
2022/03/08 03:19:25;;;;;;;;;;;;;;;-3.44;63.42;101852.41;1701556;82;20207;-72
2022/03/08 03:21:51;;;;;;;;;;;;;;;-3.47;63.42;101846.30;1701589;84;20774;-71
2022/03/08 03:24:16;;;;;;;;;;;;;;;-3.49;63.47;101849.12;1702468;82;20831;-71
2022/03/08 03:26:43;;;;;;;;;;;;;;;-3.52;63.49;101847.28;1707155;82;20860;-71
2022/03/08 03:29:09;;;;;;;;;;;;;;;-3.52;63.53;101847.28;1730430;82;20434;-71
2022/03/08 03:31:35;;;;;;;;;;;;;;;-3.54;63.48;101848.84;1701402;82;20527;-71
2022/03/08 03:34:01;;;;;;;;;;;;;;;-3.54;63.52;101850.11;1689126;83;20338;-71
2022/03/08 03:36:28;;;;;;;;;;;;;;;-3.54;63.64;101854.30;1679126;84;20424;-71
2022/03/08 03:38:56;;;;;;;;;;;;;;;-3.53;63.63;101848.06;1704576;82;20491;-71
2022/03/08 03:41:22;;;;;;;;;;;;;;;-3.54;63.68;101851.38;1726222;82;20261;-71
2022/03/08 03:43:47;;;;;;;;;;;;;;;-3.54;63.68;101851.77;1730703;82;20868;-71
2022/03/08 03:46:19;;;;;;;;;;;;;;;-3.52;63.79;101850.20;1730520;82;20435;-71
2022/03/08 03:48:44;;;;;;;;;;;;;;;-3.52;63.69;101852.34;1715952;82;20727;-71
2022/03/08 03:51:11;;;;;;;;;;;;;;;-3.52;63.69;101852.34;1733543;82;20819;-71
2022/03/08 03:53:37;;;;;;;;;;;;;;;-3.53;63.69;101851.86;1745696;81;20420;-71
2022/03/08 03:56:03;;;;;;;;;;;;;;;-3.55;63.66;101858.87;1745232;82;20905;-71
2022/03/08 03:58:29;;;;;;;;;;;;;;;-3.57;63.65;101856.64;1732025;81;20131;-71
2022/03/08 04:00:55;;;;;;;;;;;;;;;-3.61;63.76;101860.63;1701657;82;20461;-71
2022/03/08 04:03:21;;;;;;;;;;;;;;;-3.62;63.73;101856.75;1699639;83;20256;-71
2022/03/08 04:05:47;;;;;;;;;;;;;;;-3.64;63.77;101873.11;1698928;83;20815;-71
2022/03/08 04:08:13;;;;;;;;;;;;;;;-3.69;63.74;101874.09;1702472;83;20875;-71
2022/03/08 04:10:39;;;;;;;;;;;;;;;-3.72;63.72;101876.44;1728376;82;20450;-71
2022/03/08 04:13:07;;;;;;;;;;;;;;;-3.77;63.66;101874.02;1728005;82;20458;-72
2022/03/08 04:15:34;;;;;;;;;;;;;;;-3.80;63.65;101869.16;1727597;83;20226;-72
2022/03/08 04:18:00;;;;;;;;;;;;;;;-3.82;63.72;101866.92;1725172;82;20494;-71
2022/03/08 04:20:32;;;;;;;;;;;;;;;-3.84;63.75;101874.41;1727132;82;20590;-71
2022/03/08 04:22:57;;;;;;;;;;;;;;;-3.85;63.77;101874.31;1725122;83;20210;-71
2022/03/08 04:25:23;;;;;;;;;;;;;;;-3.88;63.72;101877.91;1725346;83;20197;-71
2022/03/08 04:27:49;;;;;;;;;;;;;;;-3.92;63.79;101879.77;1726700;82;20816;-71
2022/03/08 04:30:15;;;;;;;;;;;;;;;-3.94;63.87;101878.41;1713174;83;20858;-72
2022/03/08 04:32:41;;;;;;;;;;;;;;;-3.97;63.80;101879.87;1730773;81;20254;-72
2022/03/08 04:35:07;;;;;;;;;;;;;;;-3.98;63.90;101879.38;1726754;83;20253;-71
2022/03/08 04:37:33;;;;;;;;;;;;;;;-3.99;63.96;101881.03;1714340;83;20591;-71
2022/03/08 04:39:59;;;;;;;;;;;;;;;-3.97;63.94;101882.00;1723778;83;20328;-71
2022/03/08 04:42:25;;;;;;;;;;;;;;;-3.98;63.89;101878.99;1728445;82;20217;-71
2022/03/08 04:44:53;;;;;;;;;;;;;;;-3.96;63.89;101886.67;1703814;82;20475;-71
2022/03/08 04:47:18;;;;;;;;;;;;;;;-3.97;63.90;101892.50;1720010;82;20230;-71
2022/03/08 04:49:44;;;;;;;;;;;;;;;-3.97;63.91;101888.70;1706107;83;20511;-71
2022/03/08 04:52:13;;;;;;;;;;;;;;;-4.01;63.89;101886.38;1705542;83;20214;-71
2022/03/08 04:54:38;;;;;;;;;;;;;;;-4.04;63.89;101890.84;1679211;84;20202;-71
2022/03/08 04:57:05;;;;;;;;;;;;;;;-4.07;63.82;101888.13;1689011;84;20889;-71
2022/03/08 04:59:31;;;;;;;;;;;;;;;-4.08;63.98;101883.85;1701486;84;20240;-71
2022/03/08 05:01:57;;;;;;;;;;;;;;;-4.06;63.95;101880.16;1696248;82;20206;-71
2022/03/08 05:04:23;;;;;;;;;;;;;;;-4.09;63.83;101890.07;1682788;82;20294;-71
2022/03/08 05:06:49;;;;;;;;;;;;;;;-4.16;63.85;101891.33;1699795;82;20212;-71
2022/03/08 05:09:15;;;;;;;;;;;;;;;-4.19;63.86;101900.40;1695070;82;20191;-71
2022/03/08 05:11:43;;;;;;;;;;;;;;;-4.24;63.86;101897.97;1700486;83;20236;-73
2022/03/08 05:14:09;;;;;;;;;;;;;;;-4.28;63.88;101895.63;1699527;83;20579;-72
2022/03/08 05:16:35;;;;;;;;;;;;;;;-4.31;63.92;101901.75;1695878;82;20879;-72
2022/03/08 05:19:01;;;;;;;;;;;;;;;-4.35;63.99;101894.75;1699651;84;20567;-72
2022/03/08 05:21:27;;;;;;;;;;;;;;;-4.36;64.00;101896.41;1720328;83;20161;-72
2022/03/08 05:23:53;;;;;;;;;;;;;;;-4.37;64.11;101897.17;1698680;83;20299;-72
2022/03/08 05:26:19;;;;;;;;;;;;;;;-4.32;64.14;101895.34;1688474;83;20184;-72
2022/03/08 05:28:46;;;;;;;;;;;;;;;-4.29;64.18;101888.83;1703471;82;20227;-72
2022/03/08 05:31:13;;;;;;;;;;;;;;;-4.31;64.12;101884.08;1701766;83;20232;-72
2022/03/08 05:33:40;;;;;;;;;;;;;;;-4.30;64.33;101890.87;1699305;82;20387;-72
2022/03/08 05:36:08;;;;;;;;;;;;;;;-4.29;64.21;101886.70;1700124;82;20627;-72
2022/03/08 05:38:34;;;;;;;;;;;;;;;-4.28;64.21;101885.92;1679866;84;20282;-72
2022/03/08 05:41:00;;;;;;;;;;;;;;;-4.27;64.28;101886.02;1697349;84;20164;-72
2022/03/08 05:43:28;;;;;;;;;;;;;;;-4.24;64.30;101887.86;1700531;84;20240;-71
2022/03/08 05:45:55;;;;;;;;;;;;;;;-4.25;64.18;101889.91;1702342;82;20147;-73
2022/03/08 05:48:23;;;;;;;;;;;;;;;-4.27;64.28;101890.20;1688733;83;20181;-73
2022/03/08 05:50:49;;;;;;;;;;;;;;;-4.26;64.35;101890.30;1727785;81;20177;-73
2022/03/08 05:53:15;;;;;;;;;;;;;;;-4.23;64.44;101891.75;1726122;83;20233;-72
2022/03/08 05:55:42;;;;;;;;;;;;;;;-4.16;64.48;101893.86;1716426;82;20205;-72
2022/03/08 05:58:08;;;;;;;;;;;;;;;-4.06;64.71;101897.45;1702699;83;20980;-72
2022/03/08 06:00:34;;;;;;;;;;;;;;;-3.90;64.79;101895.50;1702569;83;20322;-72
2022/03/08 06:02:59;;;;;;;;;;;;;;;-3.70;64.91;101900.15;1717590;83;20184;-73
2022/03/08 06:05:25;;;;;;;;;;;;;;;-3.48;64.96;101901.05;1727235;81;20553;-73
2022/03/08 06:07:51;;;;;;;;;;;;;;;-3.23;65.12;101903.41;1720715;83;20283;-73
2022/03/08 06:10:17;;;;;;;;;;;;;;;-2.98;65.04;101900.66;1714338;83;20221;-73
2022/03/08 06:12:44;;;;;;;;;;;;;;;-2.72;65.13;101896.73;1728542;83;20860;-73
2022/03/08 06:15:17;;;;;;;;;;;;;;;-2.48;65.09;101887.50;1711046;82;20189;-73
2022/03/08 06:17:43;;;;;;;;;;;;;;;-2.17;65.25;101892.63;1727957;83;20170;-73
2022/03/08 06:20:09;;;;;;;;;;;;;;;-1.90;65.31;101898.33;1714511;83;20561;-73
2022/03/08 06:22:35;;;;;;;;;;;;;;;-1.66;65.15;101898.39;1699658;83;20174;-73
2022/03/08 06:25:01;;;;;;;;;;;;;;;-1.48;65.18;101899.34;1699242;84;20188;-73
2022/03/08 06:27:27;;;;;;;;;;;;;;;-1.23;65.26;101899.38;1698873;84;20189;-73
2022/03/08 06:29:53;;;;;;;;;;;;;;;-1.03;65.21;101894.90;1716162;82;20202;-73
2022/03/08 06:32:20;;;;;;;;;;;;;;;-0.90;65.18;101893.86;1708532;81;20482;-73
2022/03/08 06:34:46;;;;;;;;;;;;;;;-0.76;65.27;101892.89;1728093;81;20201;-73
2022/03/08 06:37:12;;;;;;;;;;;;;;;-0.51;65.48;101898.37;1723055;83;20236;-73
2022/03/08 06:39:38;;;;;;;;;;;;;;;-0.26;65.40;101900.44;1712743;83;20191;-73
2022/03/08 06:42:07;;;;;;;;;;;;;;;-0.06;65.51;101907.75;1727295;82;20174;-73
2022/03/08 06:44:32;;;;;;;;;;;;;;;0.13;65.47;101911.61;1726970;82;20183;-73
2022/03/08 06:46:58;;;;;;;;;;;;;;;0.29;65.60;101906.44;1720603;82;20210;-73
2022/03/08 06:49:28;;;;;;;;;;;;;;;0.59;65.69;101908.61;1719923;82;20536;-73
2022/03/08 06:51:54;;;;;;;;;;;;;;;0.87;65.64;101905.22;1729341;81;20737;-73
2022/03/08 06:54:19;;;;;;;;;;;;;;;1.11;65.61;101904.52;1726991;82;20251;-73
2022/03/08 06:56:45;;;;;;;;;;;;;;;1.34;65.67;101911.46;1721832;82;20205;-73
2022/03/08 06:59:11;;;;;;;;;;;;;;;1.56;65.71;101909.41;1717938;82;20876;-73
2022/03/08 07:01:40;;;;;;;;;;;;;;;1.80;65.83;101909.50;1727591;82;20183;-73
2022/03/08 07:04:06;;;;;;;;;;;;;;;2.17;65.94;101913.08;1718395;82;20277;-73
2022/03/08 07:06:32;;;;;;;;;;;;;;;2.57;65.91;101912.92;1723402;82;20257;-73
2022/03/08 07:08:58;;;;;;;;;;;;;;;2.93;65.80;101920.63;1708516;82;20192;-73
2022/03/08 07:11:24;;;;;;;;;;;;;;;3.19;65.66;101920.24;1720587;82;20129;-73
2022/03/08 07:13:50;;;;;;;;;;;;;;;3.44;65.66;101920.68;1730023;81;20122;-73
2022/03/08 07:16:17;;;;;;;;;;;;;;;3.64;65.64;101921.31;1729073;81;20258;-73
2022/03/08 07:18:42;;;;;;;;;;;;;;;3.84;65.65;101934.36;1710972;82;20232;-73
2022/03/08 07:21:08;;;;;;;;;;;;;;;4.04;65.76;101928.59;1720884;82;21023;-73
2022/03/08 07:23:34;;;;;;;;;;;;;;;4.28;65.77;101926.77;1728114;82;20111;-72
2022/03/08 07:26:00;;;;;;;;;;;;;;;4.50;65.71;101930.86;1724349;81;20285;-73
2022/03/08 07:28:26;;;;;;;;;;;;;;;4.71;65.64;101931.00;1729521;81;20154;-73
2022/03/08 07:30:52;;;;;;;;;;;;;;;4.92;65.63;101937.61;1722782;81;20256;-73
2022/03/08 07:33:18;;;;;;;;;;;;;;;5.13;65.65;101944.16;1726970;82;20237;-73
2022/03/08 07:35:43;;;;;;;;;;;;;;;5.30;65.62;101947.61;1728126;82;20190;-73
2022/03/08 07:38:10;;;;;;;;;;;;;;;5.39;65.64;101939.30;1718883;81;20184;-73
2022/03/08 07:40:36;;;;;;;;;;;;;;;5.49;65.71;101939.13;1717165;82;20240;-73
2022/03/08 07:43:03;;;;;;;;;;;;;;;5.65;65.64;101946.39;1728100;81;20529;-73
2022/03/08 07:45:33;;;;;;;;;;;;;;;5.80;65.66;101942.89;1721943;82;20264;-73
2022/03/08 07:47:58;;;;;;;;;;;;;;;5.98;65.58;101942.09;1715686;82;20255;-73
2022/03/08 07:50:25;;;;;;;;;;;;;;;6.09;65.47;101946.20;1637097;85;20505;-73
2022/03/08 07:52:52;;;;;;;;;;;;;;;6.20;65.57;101943.47;1642053;86;20200;-73
2022/03/08 07:55:18;;;;;;;;;;;;;;;6.46;65.75;101944.03;1675976;85;20535;-73
2022/03/08 07:57:44;;;;;;;;;;;;;;;6.68;65.73;101951.80;1661839;85;20869;-73
2022/03/08 08:00:11;;;;;;;;;;;;;;;6.74;65.97;101946.78;1674925;84;20121;-73
2022/03/08 08:02:37;;;;;;;;;;;;;;;6.81;65.99;101945.17;1675606;85;20456;-74
2022/03/08 08:05:04;;;;;;;;;;;;;;;6.84;65.97;101943.95;1674302;85;20197;-73
2022/03/08 08:07:29;;;;;;;;;;;;;;;7.03;66.24;101943.91;1670013;84;20225;-73
2022/03/08 08:09:56;;;;;;;;;;;;;;;7.17;66.42;101934.76;1675376;84;20244;-73
2022/03/08 08:12:22;;;;;;;;;;;;;;;7.24;66.38;101929.77;1676589;84;20256;-73
2022/03/08 08:14:47;;;;;;;;;;;;;;;7.19;66.23;101924.08;1668046;85;20208;-73
2022/03/08 08:17:16;;;;;;;;;;;;;;;7.18;66.38;101924.50;1677641;84;20173;-73
2022/03/08 08:19:41;;;;;;;;;;;;;;;7.21;66.28;101926.27;1643653;85;20212;-73
2022/03/08 08:22:07;;;;;;;;;;;;;;;7.16;66.12;101930.45;1622065;88;20249;-73
2022/03/08 08:24:33;;;;;;;;;;;;;;;7.11;66.17;101934.22;1638862;86;20187;-73
2022/03/08 08:26:59;;;;;;;;;;;;;;;7.05;66.11;101931.53;1636638;86;20228;-73
2022/03/08 08:29:25;;;;;;;;;;;;;;;7.04;65.92;101927.22;1646474;87;20244;-73
2022/03/08 08:31:52;;;;;;;;;;;;;;;7.01;65.76;101930.16;1648907;86;20209;-73
2022/03/08 08:34:18;;;;;;;;;;;;;;;6.88;65.81;101931.61;1626088;87;20196;-73
2022/03/08 08:36:46;;;;;;;;;;;;;;;6.81;65.70;101928.47;1645245;87;20355;-73
2022/03/08 08:39:11;;;;;;;;;;;;;;;6.60;65.44;101925.92;1648423;86;20186;-73
2022/03/08 08:41:37;;;;;;;;;;;;;;;6.48;65.53;101928.65;1616084;88;20149;-73
2022/03/08 08:44:03;;;;;;;;;;;;;;;6.41;65.66;101928.93;1610485;88;20113;-73
2022/03/08 08:46:29;;;;;;;;;;;;;;;6.41;65.46;101928.93;1620983;88;20104;-73
2022/03/08 08:48:55;;;;;;;;;;;;;;;6.34;65.43;101923.62;1654370;84;20196;-73
2022/03/08 08:51:20;;;;;;;;;;;;;;;6.17;65.17;101920.70;1663375;85;20187;-73
2022/03/08 08:53:46;;;;;;;;;;;;;;;5.99;65.19;101914.72;1664631;85;20168;-73
2022/03/08 08:56:12;;;;;;;;;;;;;;;5.90;65.29;101915.37;1730668;81;20103;-73
2022/03/08 08:58:38;;;;;;;;;;;;;;;5.85;65.45;101926.32;1729913;82;20146;-73
2022/03/08 09:01:04;;;;;;;;;;;;;;;5.77;65.31;101929.98;1731624;82;20173;-73
2022/03/08 09:03:30;;;;;;;;;;;;;;;5.73;65.31;101924.73;1729372;82;20225;-73
2022/03/08 09:05:56;;;;;;;;;;;;;;;5.52;64.83;101924.67;1728850;81;20748;-73
2022/03/08 09:08:24;;;;;;;;;;;;;;;5.35;64.90;101924.66;1730378;82;20099;-73
2022/03/08 09:10:52;;;;;;;;;;;;;;;5.27;65.04;101920.60;1729995;82;20182;-73
2022/03/08 09:13:18;;;;;;;;;;;;;;;5.30;65.11;101919.40;1728696;81;20198;-73
2022/03/08 09:15:45;;;;;;;;;;;;;;;5.30;64.98;101907.86;1722224;82;20478;-73
2022/03/08 09:18:11;;;;;;;;;;;;;;;5.30;64.81;101909.14;1714764;81;20184;-73
2022/03/08 09:20:38;;;;;;;;;;;;;;;5.20;64.79;101917.87;1723276;81;20178;-73
2022/03/08 09:23:06;;;;;;;;;;;;;;;5.13;64.70;101915.96;1725259;83;20129;-73
2022/03/08 09:25:33;;;;;;;;;;;;;;;5.11;64.65;101906.95;1723106;82;20091;-73
2022/03/08 09:28:01;;;;;;;;;;;;;;;5.08;64.61;101912.41;1722644;82;20084;-73
2022/03/08 09:30:27;;;;;;;;;;;;;;;5.02;64.47;101914.39;1719878;82;20123;-73
2022/03/08 09:32:56;;;;;;;;;;;;;;;4.93;64.45;101904.75;1720423;82;20083;-73
2022/03/08 09:35:21;;;;;;;;;;;;;;;4.90;64.42;101909.79;1727779;82;20091;-73
2022/03/08 09:37:46;;;;;;;;;;;;;;;4.89;64.36;101916.16;1731276;81;20777;-73
2022/03/08 09:40:12;;;;;;;;;;;;;;;4.91;64.37;101922.19;1729199;82;20277;-73
2022/03/08 09:42:39;;;;;;;;;;;;;;;4.95;64.46;101914.63;1728207;81;20197;-73
2022/03/08 09:45:05;;;;;;;;;;;;;;;5.00;64.41;101912.20;1726577;82;20181;-73
2022/03/08 09:47:31;;;;;;;;;;;;;;;5.03;64.15;101907.56;1723548;82;20207;-73
2022/03/08 09:49:59;;;;;;;;;;;;;;;5.06;64.15;101905.09;1727311;81;20199;-73
2022/03/08 09:52:25;;;;;;;;;;;;;;;5.06;64.00;101903.39;1723274;81;20272;-73
2022/03/08 09:54:52;;;;;;;;;;;;;;;5.16;64.14;101901.94;1717243;81;20175;-73
2022/03/08 09:57:23;;;;;;;;;;;;;;;5.23;64.13;101900.83;1709551;81;20158;-73
2022/03/08 09:59:46;;;;;;;;;;;;;;;5.29;64.00;101892.44;1726202;83;20206;-73
2022/03/08 10:02:14;;;;;;;;;;;;;;;5.39;64.01;101889.69;1723902;82;20190;-73
2022/03/08 10:04:40;;;;;;;;;;;;;;;5.47;63.90;101886.49;1725783;81;20451;-73
2022/03/08 10:07:10;;;;;;;;;;;;;;;5.55;63.94;101877.30;1719022;82;20142;-73
2022/03/08 10:09:37;;;;;;;;;;;;;;;5.63;63.95;101873.22;1728807;82;20083;-73
2022/03/08 10:12:06;;;;;;;;;;;;;;;5.69;63.89;101872.91;1726809;83;20095;-73
2022/03/08 10:14:39;;;;;;;;;;;;;;;5.72;63.77;101867.86;1641078;85;20121;-73
2022/03/08 10:17:07;;;;;;;;;;;;;;;5.79;63.74;101869.70;1643444;85;20138;-73
2022/03/08 10:19:44;;;;;;;;;;;;;;;5.82;63.64;101866.80;1670491;84;20137;-73
2022/03/08 10:22:25;;;;;;;;;;;;;;;5.91;63.61;101864.89;1655723;84;20129;-73
2022/03/08 10:24:51;;;;;;;;;;;;;;;5.98;63.79;101868.05;1656668;86;20207;-73
2022/03/08 10:27:18;;;;;;;;;;;;;;;5.98;63.65;101859.06;1641972;86;20094;-73
2022/03/08 10:29:49;;;;;;;;;;;;;;;6.04;63.51;101857.92;1659091;86;20121;-73
2022/03/08 10:32:16;;;;;;;;;;;;;;;6.10;63.75;101861.91;1651044;86;20135;-73
2022/03/08 10:34:42;;;;;;;;;;;;;;;6.11;63.36;101857.64;1650157;86;20423;-73
2022/03/08 10:37:17;;;;;;;;;;;;;;;6.17;63.42;101869.34;1664091;84;20350;-73
2022/03/08 10:39:51;;;;;;;;;;;;;;;6.26;63.47;101861.80;1664616;86;20105;-73
2022/03/08 10:42:23;;;;;;;;;;;;;;;6.34;63.32;101861.97;1666253;85;20137;-73
2022/03/08 10:44:53;;;;;;;;;;;;;;;6.40;63.25;101854.39;1658564;84;20112;-73
2022/03/08 10:47:18;;;;;;;;;;;;;;;6.41;63.22;101848.42;1665215;84;20105;-73
2022/03/08 10:49:56;;;;;;;;;;;;;;;6.44;63.31;101842.06;1662649;84;20207;-73
2022/03/08 10:52:30;;;;;;;;;;;;;;;6.48;63.26;101838.30;1660630;86;20105;-73
2022/03/08 10:55:18;;;;;;;;;;;;;;;6.49;62.98;101825.91;1661972;84;20439;-73
2022/03/08 10:57:49;;;;;;;;;;;;;;;6.54;63.02;101822.14;1661138;86;20129;-73
2022/03/08 11:00:20;;;;;;;;;;;;;;;6.61;62.99;101818.86;1663109;86;20534;-73
2022/03/08 11:03:00;;;;;;;;;;;;;;;6.67;63.16;101815.54;1643628;86;20152;-73
2022/03/08 11:05:35;;;;;;;;;;;;;;;6.68;63.09;101812.13;1656424;85;20097;-73
2022/03/08 11:08:02;;;;;;;;;;;;;;;6.68;62.83;101818.56;1660661;84;20132;-73
2022/03/08 11:10:29;;;;;;;;;;;;;;;6.61;62.71;101805.59;1657051;85;20096;-73
2022/03/08 11:12:57;;;;;;;;;;;;;;;6.59;62.64;101803.41;1662202;86;20105;-73
2022/03/08 11:15:24;;;;;;;;;;;;;;;6.62;62.83;101800.90;1666308;84;20424;-73
2022/03/08 11:17:53;;;;;;;;;;;;;;;6.62;62.74;101802.19;1667679;85;20104;-73
2022/03/08 11:20:20;;;;;;;;;;;;;;;6.64;62.75;101800.51;1660654;85;20109;-73
2022/03/08 11:22:51;;;;;;;;;;;;;;;6.68;62.68;101804.42;1637352;86;38192;-73
2022/03/08 11:25:18;;;;;;;;;;;;;;;6.74;62.84;101801.97;1669388;85;20420;-73
2022/03/08 11:27:46;;;;;;;;;;;;;;;6.81;62.57;101794.37;1664306;86;20155;-73
2022/03/08 11:30:18;;;;;;;;;;;;;;;6.87;62.40;101790.63;1667748;84;20139;-73
2022/03/08 11:33:04;;;;;;;;;;;;;;;6.93;62.37;101786.88;1658714;84;20214;-73
2022/03/08 11:35:40;;;;;;;;;;;;;;;6.97;62.40;101791.23;1655365;86;20617;-73
2022/03/08 11:38:06;;;;;;;;;;;;;;;7.01;62.30;101788.72;1678865;84;20146;-73
2022/03/08 11:40:34;;;;;;;;;;;;;;;6.97;62.19;101786.09;1671856;84;20124;-73
2022/03/08 11:43:04;;;;;;;;;;;;;;;6.94;62.13;101782.59;1662479;84;20126;-73
2022/03/08 11:45:31;;;;;;;;;;;;;;;6.93;62.14;101775.72;1675976;85;20112;-73
2022/03/08 11:48:07;;;;;;;;;;;;;;;6.98;62.56;101777.95;1675923;84;20084;-73
2022/03/08 11:50:37;;;;;;;;;;;;;;;7.03;62.17;101775.05;1673981;84;20420;-73
2022/03/08 11:53:08;;;;;;;;;;;;;;;7.09;62.35;101770.01;1667937;84;20102;-73
2022/03/08 11:55:47;;;;;;;;;;;;;;;7.15;62.29;101767.53;1669154;86;20503;-73
2022/03/08 11:58:20;;;;;;;;;;;;;;;7.17;62.07;101764.57;1654587;84;20451;-73
2022/03/08 12:00:55;;;;;;;;;;;;;;;7.20;62.30;101765.91;1668238;86;20137;-73
2022/03/08 12:03:25;;;;;;;;;;;;;;;7.25;61.83;101764.27;1660654;86;20547;-73
2022/03/08 12:06:04;;;;;;;;;;;;;;;7.28;61.97;101766.86;1656678;85;20510;-73
2022/03/08 12:08:35;;;;;;;;;;;;;;;7.30;61.82;101766.89;1665015;84;20109;-73
2022/03/08 12:11:07;;;;;;;;;;;;;;;7.35;62.09;101765.25;1663448;85;20412;-73
2022/03/08 12:13:35;;;;;;;;;;;;;;;7.45;61.99;101764.56;1667507;85;20424;-73
2022/03/08 12:16:12;;;;;;;;;;;;;;;7.52;61.82;101755.22;1658962;84;20111;-73
2022/03/08 12:18:41;;;;;;;;;;;;;;;7.52;61.72;101752.23;1669223;86;20758;-73
2022/03/08 12:21:19;;;;;;;;;;;;;;;7.52;61.66;101752.65;1669091;84;20803;-73
2022/03/08 12:23:53;;;;;;;;;;;;;;;7.58;61.73;101748.87;1654150;84;20105;-72
2022/03/08 12:26:34;;;;;;;;;;;;;;;7.62;61.56;101749.37;1666146;86;20092;-73
2022/03/08 12:29:30;;;;;;;;;;;;;;;7.62;61.37;101746.79;1659265;86;20685;-73
2022/03/08 12:32:08;;;;;;;;;;;;;;;7.64;61.72;101751.54;1665948;86;20694;-73
2022/03/08 12:34:42;;;;;;;;;;;;;;;7.70;61.29;101751.63;1670071;84;20386;-73
2022/03/08 12:37:10;;;;;;;;;;;;;;;7.74;61.38;101744.81;1642346;85;20117;-73
2022/03/08 12:39:52;;;;;;;;;;;;;;;7.79;61.65;101748.31;1677703;84;20098;-73
2022/03/08 12:42:31;;;;;;;;;;;;;;;7.84;61.53;101751.78;1663285;85;20084;-73